createdAt,value
2019-03-12T00:00:32.051Z,21.9
2019-03-12T00:01:22.115Z,21.9
2019-03-12T00:02:12.163Z,21.9
2019-03-12T00:03:01.977Z,21.9
2019-03-12T00:03:52.282Z,21.9
2019-03-12T00:04:42.357Z,21.9
2019-03-12T00:05:32.401Z,21.9
2019-03-12T00:06:22.564Z,21.9
2019-03-12T00:07:12.527Z,21.9
2019-03-12T00:08:02.587Z,21.9
2019-03-12T00:08:52.372Z,21.9
2019-03-12T00:09:42.707Z,21.9
2019-03-12T00:10:32.772Z,21.9
2019-03-12T00:11:22.821Z,21.9
2019-03-12T00:12:12.897Z,21.9
2019-03-12T00:13:02.959Z,21.9
2019-03-12T00:13:53.017Z,21.9
2019-03-12T00:14:43.074Z,21.9
2019-03-12T00:15:33.144Z,21.9
2019-03-12T00:16:23.200Z,21.9
2019-03-12T00:17:13.246Z,21.9
2019-03-12T00:18:03.154Z,21.9
2019-03-12T00:18:53.099Z,21.9
2019-03-12T00:19:43.444Z,21.9
2019-03-12T00:20:33.219Z,21.9
2019-03-12T00:21:23.566Z,21.9
2019-03-12T00:22:13.354Z,21.9
2019-03-12T00:23:03.494Z,21.9
2019-03-12T00:23:53.742Z,21.9
2019-03-12T00:24:43.518Z,21.9
2019-03-12T00:25:33.926Z,21.9
2019-03-12T00:26:23.920Z,21.9
2019-03-12T00:27:13.704Z,21.9
2019-03-12T00:28:03.773Z,21.9
2019-03-12T00:28:54.101Z,21.9
2019-03-12T00:29:44.168Z,21.9
2019-03-12T00:30:34.336Z,21.9
2019-03-12T00:31:24.283Z,22
2019-03-12T00:32:14.346Z,21.9
2019-03-12T00:33:04.436Z,21.9
2019-03-12T00:33:54.206Z,21.9
2019-03-12T00:34:44.525Z,21.9
2019-03-12T00:35:34.590Z,21.9
2019-03-12T00:36:24.648Z,21.9
2019-03-12T00:37:14.708Z,21.9
2019-03-12T00:38:04.501Z,21.9
2019-03-12T00:38:54.830Z,21.9
2019-03-12T00:39:44.895Z,21.9
2019-03-12T00:40:34.958Z,21.9
2019-03-12T00:41:25.018Z,22
2019-03-12T00:42:14.802Z,21.9
2019-03-12T00:43:05.131Z,21.9
2019-03-12T00:43:55.193Z,21.9
2019-03-12T00:44:44.990Z,21.9
2019-03-12T00:45:35.318Z,22
2019-03-12T00:46:28.097Z,22
2019-03-12T00:47:15.160Z,21.9
2019-03-12T00:48:05.215Z,21.9
2019-03-12T00:48:55.555Z,22
2019-03-12T00:49:45.620Z,21.9
2019-03-12T00:50:35.680Z,21.9
2019-03-12T00:51:25.467Z,21.9
2019-03-12T00:52:15.802Z,21.9
2019-03-12T00:53:05.592Z,21.9
2019-03-12T00:53:55.664Z,21.9
2019-03-12T00:54:45.990Z,21.9
2019-03-12T00:55:35.772Z,21.9
2019-03-12T00:56:26.101Z,21.9
2019-03-12T00:57:15.887Z,22
2019-03-12T00:58:06.225Z,21.9
2019-03-12T00:58:56.002Z,21.9
2019-03-12T00:59:46.099Z,21.9
2019-03-12T01:00:36.149Z,22
2019-03-12T01:01:26.507Z,21.9
2019-03-12T01:02:16.533Z,21.9
2019-03-12T01:03:06.600Z,22
2019-03-12T01:03:56.654Z,21.9
2019-03-12T01:04:46.722Z,21.9
2019-03-12T01:05:36.507Z,21.9
2019-03-12T01:06:26.834Z,22
2019-03-12T01:07:16.894Z,21.9
2019-03-12T01:08:06.951Z,22
2019-03-12T01:08:57.009Z,21.9
2019-03-12T01:09:47.076Z,22
2019-03-12T01:10:37.136Z,22
2019-03-12T01:11:27.196Z,21.9
2019-03-12T01:12:17.249Z,21.9
2019-03-12T01:13:07.383Z,22
2019-03-12T01:13:57.382Z,22
2019-03-12T01:14:47.431Z,22
2019-03-12T01:15:37.493Z,21.9
2019-03-12T01:16:27.281Z,22
2019-03-12T01:17:17.338Z,21.9
2019-03-12T01:18:07.676Z,22
2019-03-12T01:18:57.823Z,21.9
2019-03-12T01:19:47.793Z,22
2019-03-12T01:20:37.861Z,21.9
2019-03-12T01:21:27.660Z,22
2019-03-12T01:22:17.713Z,21.9
2019-03-12T01:23:08.043Z,22
2019-03-12T01:23:58.108Z,22
2019-03-12T01:24:48.180Z,22
2019-03-12T01:25:38.339Z,21.9
2019-03-12T01:26:28.010Z,22
2019-03-12T01:27:18.351Z,22
2019-03-12T01:28:08.426Z,22
2019-03-12T01:28:58.475Z,21.9
2019-03-12T01:29:48.533Z,22
2019-03-12T01:30:38.357Z,21.9
2019-03-12T01:31:28.372Z,22
2019-03-12T01:32:18.705Z,22
2019-03-12T01:33:08.765Z,22
2019-03-12T01:33:58.842Z,22
2019-03-12T01:34:48.898Z,22
2019-03-12T01:35:38.671Z,22
2019-03-12T01:36:29.007Z,22
2019-03-12T01:37:19.072Z,22
2019-03-12T01:38:09.135Z,22
2019-03-12T01:38:58.922Z,22
2019-03-12T01:39:48.967Z,21.9
2019-03-12T01:40:39.317Z,21.9
2019-03-12T01:41:29.090Z,22
2019-03-12T01:42:19.487Z,22
2019-03-12T01:43:09.242Z,22
2019-03-12T01:43:59.556Z,22
2019-03-12T01:44:49.617Z,22
2019-03-12T01:45:39.393Z,22
2019-03-12T01:46:29.734Z,22
2019-03-12T01:47:19.826Z,21.9
2019-03-12T01:48:09.860Z,22
2019-03-12T01:48:59.649Z,22
2019-03-12T01:49:49.977Z,22
2019-03-12T01:50:40.054Z,22
2019-03-12T01:51:32.264Z,22
2019-03-12T01:52:20.159Z,22
2019-03-12T01:53:10.219Z,22
2019-03-12T01:54:00.006Z,22
2019-03-12T01:54:50.344Z,22
2019-03-12T01:55:40.410Z,22
2019-03-12T01:56:30.191Z,22
2019-03-12T01:57:20.526Z,22
2019-03-12T01:58:10.582Z,22
2019-03-12T01:59:00.378Z,22
2019-03-12T01:59:50.706Z,22
2019-03-12T02:00:40.493Z,22
2019-03-12T02:01:30.823Z,22
2019-03-12T02:02:20.884Z,22
2019-03-12T02:03:11.004Z,22
2019-03-12T02:04:00.773Z,22
2019-03-12T02:04:50.796Z,22
2019-03-12T02:05:40.850Z,22
2019-03-12T02:06:31.199Z,22
2019-03-12T02:07:21.250Z,22
2019-03-12T02:08:11.313Z,22
2019-03-12T02:09:01.372Z,22
2019-03-12T02:09:51.445Z,22
2019-03-12T02:10:41.493Z,22
2019-03-12T02:11:31.560Z,22
2019-03-12T02:12:21.345Z,22
2019-03-12T02:13:11.673Z,22
2019-03-12T02:14:01.740Z,22
2019-03-12T02:14:51.519Z,22
2019-03-12T02:15:41.855Z,22
2019-03-12T02:16:35.450Z,22
2019-03-12T02:17:21.979Z,22
2019-03-12T02:18:11.769Z,22
2019-03-12T02:19:01.831Z,22
2019-03-12T02:19:52.155Z,22
2019-03-12T02:20:42.217Z,22
2019-03-12T02:21:32.277Z,22
2019-03-12T02:22:22.332Z,22
2019-03-12T02:23:12.402Z,22
2019-03-12T02:24:02.237Z,22
2019-03-12T02:24:54.107Z,22
2019-03-12T02:25:42.577Z,22
2019-03-12T02:26:32.102Z,22
2019-03-12T02:27:22.423Z,22
2019-03-12T02:28:12.762Z,22
2019-03-12T02:29:02.824Z,22
2019-03-12T02:29:52.892Z,22
2019-03-12T02:30:42.962Z,22
2019-03-12T02:31:33.039Z,22
2019-03-12T02:32:22.792Z,22
2019-03-12T02:33:13.251Z,22
2019-03-12T02:34:03.199Z,22
2019-03-12T02:34:53.260Z,22
2019-03-12T02:35:43.038Z,22
2019-03-12T02:36:33.405Z,22
2019-03-12T02:37:23.163Z,22
2019-03-12T02:38:13.494Z,22
2019-03-12T02:39:03.562Z,22
2019-03-12T02:39:53.625Z,22
2019-03-12T02:40:43.705Z,22
2019-03-12T02:41:33.742Z,22
2019-03-12T02:42:23.820Z,22
2019-03-12T02:43:13.915Z,22
2019-03-12T02:44:03.674Z,22
2019-03-12T02:44:53.989Z,22
2019-03-12T02:45:44.046Z,22.1
2019-03-12T02:46:34.119Z,22.1
2019-03-12T02:47:24.193Z,22
2019-03-12T02:48:13.944Z,22
2019-03-12T02:49:04.001Z,22
2019-03-12T02:49:54.352Z,22
2019-03-12T02:50:44.429Z,22.1
2019-03-12T02:51:34.470Z,22
2019-03-12T02:52:24.519Z,22
2019-03-12T02:53:14.589Z,22
2019-03-12T02:54:04.522Z,22
2019-03-12T02:54:54.419Z,22.1
2019-03-12T02:55:44.761Z,22
2019-03-12T02:56:34.838Z,22
2019-03-12T02:57:24.905Z,22
2019-03-12T02:58:14.980Z,22
2019-03-12T02:59:05.022Z,22
2019-03-12T02:59:54.808Z,22.1
2019-03-12T03:00:44.863Z,22
2019-03-12T03:01:35.346Z,22.1
2019-03-12T03:02:25.038Z,22.1
2019-03-12T03:03:15.311Z,22.1
2019-03-12T03:04:05.366Z,22
2019-03-12T03:07:35.780Z,22.1
2019-03-12T03:08:26.100Z,22
2019-03-12T03:09:16.170Z,22
2019-03-12T03:10:06.226Z,22
2019-03-12T03:10:56.285Z,22
2019-03-12T03:11:46.334Z,22
2019-03-12T03:12:36.401Z,22
2019-03-12T03:13:26.178Z,22.1
2019-03-12T03:14:16.517Z,22.1
2019-03-12T03:15:06.578Z,22
2019-03-12T03:15:56.650Z,22.1
2019-03-12T03:16:46.426Z,22.1
2019-03-12T03:17:36.493Z,22.1
2019-03-12T03:18:26.555Z,22.1
2019-03-12T03:19:16.602Z,22.1
2019-03-12T03:20:06.970Z,22
2019-03-12T03:20:57.029Z,22.1
2019-03-12T03:21:47.057Z,22.1
2019-03-12T03:22:37.119Z,22.1
2019-03-12T03:23:27.198Z,22
2019-03-12T03:24:17.243Z,22.1
2019-03-12T03:25:07.305Z,22.1
2019-03-12T03:25:57.094Z,22.1
2019-03-12T03:26:47.421Z,22.1
2019-03-12T03:27:37.494Z,22.1
2019-03-12T03:28:27.544Z,22.1
2019-03-12T03:29:17.614Z,22
2019-03-12T03:30:07.664Z,22
2019-03-12T03:30:57.770Z,22.1
2019-03-12T03:31:47.807Z,22.1
2019-03-12T03:32:37.872Z,22
2019-03-12T03:33:28.034Z,22.1
2019-03-12T03:34:18.099Z,22.1
2019-03-12T03:35:08.036Z,22.1
2019-03-12T03:35:58.099Z,22
2019-03-12T03:36:48.162Z,22
2019-03-12T03:37:38.196Z,22.1
2019-03-12T03:38:28.269Z,22.1
2019-03-12T03:39:18.352Z,22.1
2019-03-12T03:40:08.438Z,22.1
2019-03-12T03:40:58.282Z,22.1
2019-03-12T03:41:48.509Z,22.1
2019-03-12T03:42:38.577Z,22.1
2019-03-12T03:43:28.641Z,22.1
2019-03-12T03:44:18.434Z,22.1
2019-03-12T03:45:08.763Z,22.1
2019-03-12T03:45:58.808Z,22.1
2019-03-12T03:46:48.869Z,22.1
2019-03-12T03:47:38.954Z,22.1
2019-03-12T03:48:28.774Z,22.1
2019-03-12T03:49:19.053Z,22.1
2019-03-12T03:50:09.133Z,22.1
2019-03-12T03:50:58.926Z,22.1
2019-03-12T03:51:49.239Z,22.1
2019-03-12T03:52:39.313Z,22.1
2019-03-12T03:53:29.357Z,22.1
2019-03-12T03:54:19.413Z,22.1
2019-03-12T03:55:09.517Z,22.1
2019-03-12T03:55:59.535Z,22.1
2019-03-12T03:56:49.606Z,22.1
2019-03-12T03:57:39.424Z,22.1
2019-03-12T03:58:29.734Z,22.1
2019-03-12T03:59:19.615Z,22.1
2019-03-12T04:00:09.840Z,22.1
2019-03-12T04:00:59.912Z,22.1
2019-03-12T04:01:49.954Z,22.1
2019-03-12T04:02:40.046Z,22.1
2019-03-12T04:03:30.130Z,22.1
2019-03-12T04:04:20.155Z,22.1
2019-03-12T04:05:10.199Z,22.1
2019-03-12T04:06:00.062Z,22.1
2019-03-12T04:06:50.335Z,22.1
2019-03-12T04:07:40.116Z,22.1
2019-03-12T04:08:30.178Z,22.1
2019-03-12T04:09:20.257Z,22.1
2019-03-12T04:10:10.576Z,22.1
2019-03-12T04:11:00.635Z,22.1
2019-03-12T04:11:50.410Z,22.1
2019-03-12T04:12:40.747Z,22.1
2019-03-12T04:13:30.837Z,22.1
2019-03-12T04:14:20.887Z,22.1
2019-03-12T04:15:10.941Z,22.1
2019-03-12T04:16:01.021Z,22.1
2019-03-12T04:16:51.108Z,22.1
2019-03-12T04:17:41.151Z,22.1
2019-03-12T04:18:30.921Z,22.1
2019-03-12T04:19:20.965Z,22.1
2019-03-12T04:20:11.290Z,22.1
2019-03-12T04:21:01.386Z,22.1
2019-03-12T04:21:51.429Z,22.1
2019-03-12T04:22:41.520Z,22.1
2019-03-12T04:23:31.645Z,22.1
2019-03-12T04:24:21.594Z,22.1
2019-03-12T04:25:11.811Z,22.1
2019-03-12T04:26:01.738Z,22.1
2019-03-12T04:26:51.533Z,22.1
2019-03-12T04:27:41.851Z,22.1
2019-03-12T04:28:31.899Z,22.1
2019-03-12T04:29:21.979Z,22.1
2019-03-12T04:30:11.767Z,22.1
2019-03-12T04:31:02.088Z,22.1
2019-03-12T04:31:52.135Z,22.1
2019-03-12T04:32:42.195Z,22.1
2019-03-12T04:33:32.250Z,22.1
2019-03-12T04:34:22.040Z,22.1
2019-03-12T04:35:12.116Z,22.1
2019-03-12T04:36:02.458Z,22.1
2019-03-12T04:36:52.502Z,22.1
2019-03-12T04:37:42.552Z,22.1
2019-03-12T04:38:32.620Z,22.1
2019-03-12T04:39:22.682Z,22.1
2019-03-12T04:40:12.265Z,22.1
2019-03-12T04:41:02.797Z,22.1
2019-03-12T04:41:52.858Z,22.1
2019-03-12T04:42:42.944Z,22.1
2019-03-12T04:43:33.291Z,22.1
2019-03-12T04:44:23.044Z,22.1
2019-03-12T04:45:13.181Z,22.1
2019-03-12T04:46:03.157Z,22.1
2019-03-12T04:46:52.944Z,22.1
2019-03-12T04:47:43.351Z,22.1
2019-03-12T04:48:33.331Z,22.1
2019-03-12T04:49:23.405Z,22.1
2019-03-12T04:50:13.461Z,22.1
2019-03-12T04:51:03.521Z,22.1
2019-03-12T04:51:53.576Z,22.1
2019-03-12T04:52:43.373Z,22.1
2019-03-12T04:53:33.703Z,22.1
2019-03-12T04:54:23.760Z,22.1
2019-03-12T04:55:13.825Z,22.1
2019-03-12T04:56:03.886Z,22.1
2019-03-12T04:56:53.941Z,22.1
2019-03-12T04:57:43.996Z,22.1
2019-03-12T04:58:34.058Z,22.1
2019-03-12T04:59:24.123Z,22.1
2019-03-12T05:00:13.906Z,22.1
2019-03-12T05:01:04.253Z,22.1
2019-03-12T05:01:54.305Z,22.1
2019-03-12T05:02:44.363Z,22.1
2019-03-12T05:03:34.421Z,22.1
2019-03-12T05:04:24.490Z,22.1
2019-03-12T05:05:14.551Z,22.1
2019-03-12T05:06:04.610Z,22.1
2019-03-12T05:06:54.667Z,22.1
2019-03-12T05:07:44.732Z,22.1
2019-03-12T05:08:34.795Z,22.1
2019-03-12T05:09:24.575Z,22.1
2019-03-12T05:10:14.935Z,22.1
2019-03-12T05:11:05.055Z,22.1
2019-03-12T05:11:55.073Z,22.1
2019-03-12T05:12:45.249Z,22.1
2019-03-12T05:13:35.232Z,22.1
2019-03-12T05:14:25.209Z,22.1
2019-03-12T05:15:15.007Z,22.1
2019-03-12T05:16:05.329Z,22.1
2019-03-12T05:16:55.161Z,22.1
2019-03-12T05:17:45.178Z,22.1
2019-03-12T05:18:35.502Z,22.1
2019-03-12T05:19:25.299Z,22.1
2019-03-12T05:20:15.635Z,22.1
2019-03-12T05:21:05.456Z,22.1
2019-03-12T05:21:55.477Z,22.1
2019-03-12T05:22:45.891Z,22.1
2019-03-12T05:23:35.599Z,22.1
2019-03-12T05:24:25.928Z,22.1
2019-03-12T05:25:15.992Z,22.1
2019-03-12T05:26:06.050Z,22.1
2019-03-12T05:26:56.127Z,22.1
2019-03-12T05:27:45.922Z,22.1
2019-03-12T05:28:36.232Z,22.1
2019-03-12T05:29:26.289Z,22.1
2019-03-12T05:30:16.357Z,22.1
2019-03-12T05:31:06.459Z,22.1
2019-03-12T05:31:56.466Z,22.1
2019-03-12T05:32:46.597Z,22.1
2019-03-12T05:33:36.316Z,22.1
2019-03-12T05:34:26.679Z,22.1
2019-03-12T05:35:16.731Z,22.1
2019-03-12T05:36:06.773Z,22.1
2019-03-12T05:36:56.838Z,22.1
2019-03-12T05:37:46.898Z,22.1
2019-03-12T05:38:36.956Z,22.1
2019-03-12T05:39:27.023Z,22.1
2019-03-12T05:40:17.078Z,22.1
2019-03-12T05:41:06.856Z,22.1
2019-03-12T05:41:57.191Z,22.1
2019-03-12T05:42:47.249Z,22.1
2019-03-12T05:43:37.308Z,22.1
2019-03-12T05:44:27.089Z,22.1
2019-03-12T05:45:17.457Z,22.1
2019-03-12T05:46:07.491Z,22.1
2019-03-12T05:46:57.546Z,22.1
2019-03-12T05:47:47.613Z,22.1
2019-03-12T05:48:37.406Z,22.1
2019-03-12T05:49:27.463Z,22.1
2019-03-12T05:50:17.518Z,22.1
2019-03-12T05:51:07.573Z,22.1
2019-03-12T05:51:57.637Z,22.1
2019-03-12T05:52:50.310Z,22.1
2019-03-12T05:53:38.030Z,22.1
2019-03-12T05:54:28.107Z,22.1
2019-03-12T05:55:18.160Z,22.1
2019-03-12T05:56:08.215Z,22.1
2019-03-12T05:56:58.273Z,22.1
2019-03-12T05:57:48.362Z,22.1
2019-03-12T05:58:38.400Z,22.1
2019-03-12T05:59:28.540Z,22.1
2019-03-12T06:00:18.245Z,22.1
2019-03-12T06:01:08.575Z,22.1
2019-03-12T06:01:58.366Z,22.1
2019-03-12T06:02:48.423Z,22.1
2019-03-12T06:03:38.757Z,22.1
2019-03-12T06:05:35.899Z,22.1
2019-03-12T06:06:25.959Z,22.1
2019-03-12T06:07:15.760Z,22.1
2019-03-12T06:08:06.133Z,22.1
2019-03-12T06:08:56.142Z,22.1
2019-03-12T06:09:46.197Z,22.1
2019-03-12T06:10:36.257Z,22.1
2019-03-12T06:11:26.313Z,22.1
2019-03-12T06:12:16.379Z,22.1
2019-03-12T06:13:06.445Z,22.1
2019-03-12T06:13:56.510Z,22.1
2019-03-12T06:14:46.557Z,22.1
2019-03-12T06:15:36.627Z,22.1
2019-03-12T06:16:26.682Z,22.1
2019-03-12T06:17:16.795Z,22.1
2019-03-12T06:18:06.802Z,22.1
2019-03-12T06:18:56.874Z,22.1
2019-03-12T06:19:46.912Z,22.1
2019-03-12T06:20:36.982Z,22.1
2019-03-12T06:21:27.046Z,22.1
2019-03-12T06:22:16.854Z,22.1
2019-03-12T06:23:06.883Z,22.1
2019-03-12T06:23:57.224Z,22.1
2019-03-12T06:24:47.279Z,22.1
2019-03-12T06:25:37.374Z,22.1
2019-03-12T06:26:27.394Z,22.1
2019-03-12T06:27:19.041Z,22.1
2019-03-12T06:28:07.239Z,22.1
2019-03-12T06:28:57.576Z,22.1
2019-03-12T06:29:47.086Z,22.1
2019-03-12T06:30:37.700Z,22.1
2019-03-12T06:31:27.748Z,22.1
2019-03-12T06:32:17.816Z,22.1
2019-03-12T06:33:07.875Z,22.1
2019-03-12T06:33:57.948Z,22.1
2019-03-12T06:34:47.996Z,22.1
2019-03-12T06:35:37.801Z,22.1
2019-03-12T06:36:28.113Z,22.1
2019-03-12T06:37:18.179Z,22.1
2019-03-12T06:38:08.232Z,22.1
2019-03-12T06:38:58.296Z,22.1
2019-03-12T06:39:48.356Z,22.1
2019-03-12T06:40:38.418Z,22.1
2019-03-12T06:41:28.475Z,22.1
2019-03-12T06:42:18.538Z,22.1
2019-03-12T06:43:08.599Z,22.1
2019-03-12T06:43:58.661Z,22.1
2019-03-12T06:44:48.718Z,22.1
2019-03-12T06:45:38.778Z,22.1
2019-03-12T06:46:28.845Z,22.1
2019-03-12T06:47:18.623Z,22.1
2019-03-12T06:48:08.695Z,22.1
2019-03-12T06:48:59.015Z,22.1
2019-03-12T06:49:49.082Z,22.1
2019-03-12T06:50:39.145Z,22.1
2019-03-12T06:51:29.216Z,22.1
2019-03-12T06:52:19.277Z,22.1
2019-03-12T06:53:09.314Z,22.1
2019-03-12T06:53:59.381Z,22.1
2019-03-12T06:54:49.437Z,22.1
2019-03-12T06:55:41.946Z,22.1
2019-03-12T06:56:29.313Z,22.1
2019-03-12T06:57:19.337Z,22.1
2019-03-12T06:58:09.669Z,22.1
2019-03-12T06:58:59.465Z,22.1
2019-03-12T06:59:49.796Z,22.1
2019-03-12T07:00:39.590Z,22.1
2019-03-12T07:01:29.914Z,22.1
2019-03-12T07:02:19.972Z,22.1
2019-03-12T07:03:10.034Z,22.1
2019-03-12T07:05:35.852Z,22.1
2019-03-12T07:06:25.906Z,22.1
2019-03-12T07:07:18.174Z,22.1
2019-03-12T07:08:07.490Z,22.1
2019-03-12T07:08:56.086Z,22.1
2019-03-12T07:09:46.331Z,22.1
2019-03-12T07:10:36.204Z,22.1
2019-03-12T07:11:26.253Z,22.1
2019-03-12T07:12:16.321Z,22.1
2019-03-12T07:13:06.378Z,22.1
2019-03-12T07:13:56.438Z,22.1
2019-03-12T07:14:46.497Z,22.1
2019-03-12T07:15:36.576Z,22.1
2019-03-12T07:16:26.621Z,22.1
2019-03-12T07:17:16.398Z,22.1
2019-03-12T07:18:06.736Z,22.1
2019-03-12T07:18:56.793Z,22.1
2019-03-12T07:19:46.578Z,22.1
2019-03-12T07:20:36.916Z,22.1
2019-03-12T07:21:26.695Z,22.1
2019-03-12T07:22:17.038Z,22.1
2019-03-12T07:23:07.098Z,22.1
2019-03-12T07:23:57.151Z,22.1
2019-03-12T07:24:46.945Z,22.1
2019-03-12T07:25:37.274Z,22.1
2019-03-12T07:26:27.328Z,22.1
2019-03-12T07:27:17.392Z,22.1
2019-03-12T07:28:07.456Z,22.1
2019-03-12T07:28:57.515Z,22.1
2019-03-12T07:29:47.572Z,22.1
2019-03-12T07:30:37.669Z,22.1
2019-03-12T07:31:28.175Z,22.1
2019-03-12T07:32:17.752Z,22.1
2019-03-12T07:33:07.813Z,22.1
2019-03-12T07:33:57.877Z,22.1
2019-03-12T07:34:48.163Z,22.1
2019-03-12T07:35:37.995Z,22.1
2019-03-12T07:36:28.060Z,22.1
2019-03-12T07:37:18.124Z,22.1
2019-03-12T07:38:08.173Z,22.1
2019-03-12T07:38:58.241Z,22.1
2019-03-12T07:39:48.289Z,22.1
2019-03-12T07:40:38.087Z,22.1
2019-03-12T07:41:33.602Z,22.1
2019-03-12T07:42:18.470Z,22.1
2019-03-12T07:43:08.252Z,22.1
2019-03-12T07:43:58.599Z,22.1
2019-03-12T07:44:48.654Z,22.1
2019-03-12T07:45:41.895Z,22.1
2019-03-12T07:46:28.871Z,22.1
2019-03-12T07:47:19.011Z,22.1
2019-03-12T07:48:08.339Z,22.1
2019-03-12T07:48:58.951Z,22.1
2019-03-12T07:49:49.019Z,22.1
2019-03-12T07:50:39.075Z,22.1
2019-03-12T07:51:28.844Z,22.1
2019-03-12T07:52:18.925Z,22.1
2019-03-12T07:53:09.244Z,22.1
2019-03-12T07:54:00.872Z,22.1
2019-03-12T07:54:49.374Z,22.1
2019-03-12T07:55:39.446Z,22.1
2019-03-12T07:56:29.488Z,22.1
2019-03-12T07:57:19.564Z,22.1
2019-03-12T07:58:09.333Z,22.1
2019-03-12T07:58:59.389Z,22.1
2019-03-12T07:59:49.731Z,22.1
2019-03-12T08:00:39.783Z,22.1
2019-03-12T08:01:29.848Z,22.1
2019-03-12T08:02:19.633Z,22.1
2019-03-12T08:03:09.699Z,22.1
2019-03-12T08:04:00.328Z,22.1
2019-03-12T08:04:50.085Z,22.1
2019-03-12T08:05:40.151Z,22.1
2019-03-12T08:06:30.203Z,22.1
2019-03-12T08:07:20.003Z,22.1
2019-03-12T08:08:10.326Z,22.1
2019-03-12T08:09:00.389Z,22.1
2019-03-12T08:09:50.436Z,22
2019-03-12T08:10:40.513Z,22.1
2019-03-12T08:11:30.566Z,22.1
2019-03-12T08:12:20.620Z,22.1
2019-03-12T08:13:10.701Z,22.1
2019-03-12T08:14:00.748Z,22.1
2019-03-12T08:14:50.817Z,22.1
2019-03-12T08:15:40.884Z,22
2019-03-12T08:16:30.930Z,22.1
2019-03-12T08:17:20.995Z,22.1
2019-03-12T08:18:11.088Z,22.1
2019-03-12T08:19:00.845Z,22.1
2019-03-12T08:19:50.895Z,22.1
2019-03-12T08:20:41.235Z,22.1
2019-03-12T08:21:31.299Z,22.1
2019-03-12T08:22:21.354Z,22.1
2019-03-12T08:23:11.410Z,22.1
2019-03-12T08:24:01.462Z,22.1
2019-03-12T08:24:51.248Z,22.1
2019-03-12T08:25:44.907Z,22.1
2019-03-12T08:26:31.645Z,22.1
2019-03-12T08:27:21.430Z,22.1
2019-03-12T08:28:11.764Z,22.1
2019-03-12T08:29:01.830Z,22.1
2019-03-12T08:29:51.887Z,22.1
2019-03-12T08:30:41.685Z,22
2019-03-12T08:31:32.023Z,22.1
2019-03-12T08:32:24.889Z,22
2019-03-12T08:33:11.892Z,22
2019-03-12T08:34:02.184Z,22.1
2019-03-12T08:34:52.268Z,22.1
2019-03-12T08:35:42.327Z,22
2019-03-12T08:36:32.106Z,22.1
2019-03-12T08:37:22.439Z,22.1
2019-03-12T08:38:12.507Z,22
2019-03-12T08:39:02.544Z,22.1
2019-03-12T08:39:52.434Z,22.1
2019-03-12T08:40:57.316Z,22
2019-03-12T08:41:32.724Z,22
2019-03-12T08:42:22.773Z,22.1
2019-03-12T08:43:12.758Z,22
2019-03-12T08:44:02.628Z,22
2019-03-12T08:44:52.976Z,22
2019-03-12T08:45:49.858Z,22
2019-03-12T08:46:33.102Z,22.1
2019-03-12T08:47:22.889Z,22.1
2019-03-12T08:48:13.833Z,22
2019-03-12T08:49:03.287Z,22
2019-03-12T08:49:53.510Z,22
2019-03-12T08:50:43.124Z,22.1
2019-03-12T08:51:33.454Z,22.1
2019-03-12T08:52:22.969Z,22
2019-03-12T08:53:13.576Z,22.1
2019-03-12T08:54:03.641Z,22
2019-03-12T08:54:55.639Z,22.1
2019-03-12T08:55:43.753Z,22
2019-03-12T08:56:34.117Z,22
2019-03-12T08:57:23.590Z,22
2019-03-12T08:58:13.935Z,22
2019-03-12T08:59:03.709Z,22
2019-03-12T08:59:54.039Z,22
2019-03-12T09:00:44.103Z,22.1
2019-03-12T09:01:34.161Z,22.1
2019-03-12T09:02:24.221Z,22.1
2019-03-12T09:03:14.275Z,22
2019-03-12T09:04:04.354Z,22
2019-03-12T09:04:54.401Z,22
2019-03-12T09:05:44.446Z,22
2019-03-12T09:06:34.231Z,22.1
2019-03-12T09:07:24.306Z,22
2019-03-12T09:08:14.636Z,22
2019-03-12T09:09:04.688Z,22
2019-03-12T09:09:54.751Z,22
2019-03-12T09:10:44.532Z,22
2019-03-12T09:11:34.868Z,22
2019-03-12T09:12:24.653Z,22
2019-03-12T09:13:14.989Z,22.1
2019-03-12T09:14:04.791Z,22.1
2019-03-12T09:14:55.102Z,22
2019-03-12T09:15:45.185Z,22
2019-03-12T09:16:35.227Z,22
2019-03-12T09:17:25.306Z,22
2019-03-12T09:18:15.354Z,22.1
2019-03-12T09:19:05.404Z,22
2019-03-12T09:19:55.462Z,22
2019-03-12T09:20:45.516Z,22.1
2019-03-12T09:21:35.579Z,22
2019-03-12T09:22:25.647Z,22
2019-03-12T09:23:15.779Z,22
2019-03-12T09:24:05.771Z,22
2019-03-12T09:24:55.898Z,22
2019-03-12T09:25:45.904Z,22
2019-03-12T09:26:35.931Z,22
2019-03-12T09:27:25.996Z,22
2019-03-12T09:28:16.080Z,22
2019-03-12T09:29:06.132Z,22
2019-03-12T09:29:55.906Z,22
2019-03-12T09:30:45.986Z,22
2019-03-12T09:31:36.301Z,22
2019-03-12T09:32:26.361Z,22
2019-03-12T09:33:16.414Z,22
2019-03-12T09:34:06.474Z,22
2019-03-12T09:34:56.535Z,22
2019-03-12T09:35:46.591Z,22
2019-03-12T09:36:36.375Z,22
2019-03-12T09:37:26.730Z,22
2019-03-12T09:38:16.501Z,22
2019-03-12T09:39:06.843Z,22
2019-03-12T09:39:56.895Z,22
2019-03-12T09:40:46.959Z,22
2019-03-12T09:41:37.030Z,22
2019-03-12T09:42:27.072Z,22
2019-03-12T09:43:16.863Z,22
2019-03-12T09:44:07.207Z,22
2019-03-12T09:44:57.250Z,22
2019-03-12T09:45:47.315Z,22
2019-03-12T09:46:37.374Z,22
2019-03-12T09:47:27.150Z,22
2019-03-12T09:48:17.497Z,22
2019-03-12T09:49:07.301Z,22
2019-03-12T09:49:57.615Z,22
2019-03-12T09:50:47.677Z,22
2019-03-12T09:51:37.742Z,22
2019-03-12T09:52:27.812Z,22
2019-03-12T09:53:17.855Z,22
2019-03-12T09:54:07.973Z,22
2019-03-12T09:54:57.977Z,22
2019-03-12T09:55:48.047Z,22
2019-03-12T09:56:38.099Z,22
2019-03-12T09:57:27.890Z,22
2019-03-12T09:58:17.935Z,22
2019-03-12T09:59:08.287Z,22
2019-03-12T09:59:58.332Z,22
2019-03-12T10:00:48.112Z,22
2019-03-12T10:01:38.707Z,22
2019-03-12T10:02:28.561Z,22
2019-03-12T10:03:18.569Z,22
2019-03-12T10:04:08.469Z,22
2019-03-12T10:06:35.704Z,22
2019-03-12T10:07:25.769Z,22
2019-03-12T10:08:15.824Z,22
2019-03-12T10:09:05.384Z,22
2019-03-12T10:09:55.944Z,22
2019-03-12T10:10:45.725Z,22
2019-03-12T10:11:36.065Z,22
2019-03-12T10:12:26.121Z,22
2019-03-12T10:13:15.896Z,22
2019-03-12T10:14:05.963Z,22
2019-03-12T10:14:56.021Z,22
2019-03-12T10:15:46.082Z,22
2019-03-12T10:16:36.417Z,22
2019-03-12T10:17:26.474Z,22
2019-03-12T10:18:16.536Z,22
2019-03-12T10:19:06.626Z,22
2019-03-12T10:19:56.663Z,22
2019-03-12T10:20:46.708Z,22
2019-03-12T10:21:36.511Z,22
2019-03-12T10:22:26.566Z,22
2019-03-12T10:23:16.898Z,22
2019-03-12T10:24:06.958Z,22
2019-03-12T10:24:57.015Z,22
2019-03-12T10:25:47.070Z,22
2019-03-12T10:26:37.133Z,22
2019-03-12T10:27:26.982Z,22
2019-03-12T10:28:17.247Z,22
2019-03-12T10:29:07.307Z,22
2019-03-12T10:29:57.110Z,22
2019-03-12T10:30:47.430Z,22
2019-03-12T10:31:37.215Z,22
2019-03-12T10:32:27.562Z,22
2019-03-12T10:33:17.640Z,22
2019-03-12T10:34:07.665Z,22
2019-03-12T10:34:57.732Z,22
2019-03-12T10:35:47.789Z,22
2019-03-12T10:36:37.862Z,22
2019-03-12T10:37:27.907Z,22
2019-03-12T10:38:17.972Z,22
2019-03-12T10:39:08.027Z,22
2019-03-12T10:39:57.847Z,22
2019-03-12T10:40:48.250Z,22
2019-03-12T10:41:38.233Z,22
2019-03-12T10:42:28.274Z,22
2019-03-12T10:43:18.335Z,21.9
2019-03-12T10:44:08.392Z,21.9
2019-03-12T10:44:58.449Z,22
2019-03-12T10:45:48.244Z,22
2019-03-12T10:46:38.576Z,22
2019-03-12T10:47:28.622Z,22
2019-03-12T10:48:18.699Z,21.9
2019-03-12T10:49:08.487Z,22
2019-03-12T10:49:58.536Z,21.9
2019-03-12T10:50:48.875Z,22
2019-03-12T10:51:38.927Z,22
2019-03-12T10:52:28.991Z,21.9
2019-03-12T10:53:19.062Z,22
2019-03-12T10:54:08.846Z,21.9
2019-03-12T10:55:14.479Z,22
2019-03-12T10:55:49.234Z,21.9
2019-03-12T10:56:39.286Z,22
2019-03-12T10:57:29.343Z,21.9
2019-03-12T10:58:19.404Z,21.9
2019-03-12T10:59:09.546Z,21.9
2019-03-12T10:59:59.532Z,22
2019-03-12T11:00:49.594Z,21.9
2019-03-12T11:01:39.651Z,21.9
2019-03-12T11:02:29.701Z,21.9
2019-03-12T11:03:19.772Z,21.8
2019-03-12T11:04:09.836Z,21.6
2019-03-12T11:04:59.888Z,21.5
2019-03-12T11:05:49.966Z,21.5
2019-03-12T11:06:39.766Z,21.4
2019-03-12T11:07:30.066Z,21.4
2019-03-12T11:08:20.154Z,21.4
2019-03-12T11:09:10.202Z,21.3
2019-03-12T11:10:00.506Z,21.3
2019-03-12T11:10:49.818Z,21.3
2019-03-12T11:11:40.363Z,21.3
2019-03-12T11:12:30.462Z,21.3
2019-03-12T11:13:20.501Z,21.3
2019-03-12T11:14:10.560Z,21.3
2019-03-12T11:15:00.851Z,21.3
2019-03-12T11:15:50.393Z,21.3
2019-03-12T11:16:40.443Z,21.2
2019-03-12T11:17:30.507Z,21.2
2019-03-12T11:19:10.902Z,21.2
2019-03-12T11:20:00.971Z,21.2
2019-03-12T11:20:51.028Z,21.2
2019-03-12T11:21:41.080Z,21.3
2019-03-12T11:22:30.870Z,21.3
2019-03-12T11:23:21.190Z,21.3
2019-03-12T11:24:10.977Z,21.3
2019-03-12T11:25:01.348Z,21.3
2019-03-12T11:25:51.377Z,21.3
2019-03-12T11:26:41.434Z,21.3
2019-03-12T11:27:31.492Z,21.3
2019-03-12T11:28:21.557Z,21.3
2019-03-12T11:29:11.627Z,21.4
2019-03-12T11:30:01.687Z,21.4